Time;durP1;ratioP1;P1;durP2;ratioP2;P2;SDS_P1;SDS_P2;PMS_P1;PMS_P2;Temp;Humidity;BMP_temperature;BMP_pressure;BME280_temperature;BME280_humidity;BME280_pressure;Samples;Min_cycle;Max_cycle;Signal;HPM_P1;HPM_P2
2022/12/20 00:01:31;;;;;;;22.25;12.07;;;;;;;5.42;100.00;100697.22;5016025;28;20041;-72
2022/12/20 00:03:59;;;;;;;24.48;12.52;;;;;;;5.43;100.00;100701.56;5029609;28;20060;-72
2022/12/20 00:06:24;;;;;;;20.75;11.63;;;;;;;5.40;100.00;100704.44;5003750;28;20036;-72
2022/12/20 00:08:58;;;;;;;22.90;12.70;;;;;;;5.35;100.00;100704.00;5011218;28;20044;-72
2022/12/20 00:11:24;;;;;;;26.05;13.32;;;;;;;5.34;100.00;100697.03;5010191;28;20129;-72
2022/12/20 00:13:50;;;;;;;19.40;12.18;;;;;;;5.45;100.00;100701.41;5009852;28;20092;-72
2022/12/20 00:16:18;;;;;;;19.00;11.60;;;;;;;5.38;100.00;100687.00;5016440;28;20034;-72
2022/12/20 00:18:44;;;;;;;22.10;11.48;;;;;;;5.43;100.00;100690.09;5011789;28;20041;-71
2022/12/20 00:21:12;;;;;;;19.92;12.48;;;;;;;5.48;100.00;100699.34;5005516;28;20034;-72
2022/12/20 00:23:38;;;;;;;19.70;11.27;;;;;;;5.50;100.00;100694.78;5024669;28;20370;-72
2022/12/20 00:26:07;;;;;;;19.52;11.15;;;;;;;5.61;100.00;100687.69;5022220;28;20129;-72
2022/12/20 00:28:34;;;;;;;19.10;10.15;;;;;;;5.62;100.00;100686.72;5029444;28;20021;-71
2022/12/20 00:31:00;;;;;;;18.30;10.55;;;;;;;5.61;100.00;100683.25;5011395;28;20079;-71
2022/12/20 00:33:26;;;;;;;21.63;11.82;;;;;;;5.62;100.00;100689.38;5011487;28;20044;-71
2022/12/20 00:35:53;;;;;;;18.10;10.70;;;;;;;5.70;100.00;100692.22;5024921;28;20041;-71
2022/12/20 00:38:18;;;;;;;21.90;10.55;;;;;;;5.66;100.00;100699.56;5006422;28;20479;-71
2022/12/20 00:40:45;;;;;;;19.85;10.80;;;;;;;5.77;100.00;100696.00;5009646;28;20072;-72
2022/12/20 00:43:10;;;;;;;28.92;11.00;;;;;;;5.76;100.00;100699.63;5011475;28;20343;-71
2022/12/20 00:45:36;;;;;;;21.98;11.02;;;;;;;5.84;100.00;100696.31;5006582;28;20107;-71
2022/12/20 00:48:03;;;;;;;22.10;10.48;;;;;;;5.87;100.00;100696.03;5019288;28;20112;-71
2022/12/20 00:50:28;;;;;;;19.60;10.82;;;;;;;5.87;100.00;100675.69;4978885;28;20048;-71
2022/12/20 00:52:54;;;;;;;17.93;10.33;;;;;;;5.83;100.00;100671.63;5011704;28;20009;-71
2022/12/20 00:55:19;;;;;;;16.77;10.43;;;;;;;5.84;100.00;100681.25;5018332;28;20283;-71
2022/12/20 00:57:45;;;;;;;22.13;11.90;;;;;;;5.92;100.00;100676.13;5015164;28;20525;-71
2022/12/20 01:00:10;;;;;;;21.23;10.70;;;;;;;5.86;100.00;100673.19;5019304;28;20033;-71
2022/12/20 01:02:36;;;;;;;22.38;10.55;;;;;;;5.83;100.00;100676.94;5007110;28;20304;-71
2022/12/20 01:05:02;;;;;;;18.40;11.15;;;;;;;5.83;100.00;100676.94;5012402;28;20033;-71
2022/12/20 01:07:29;;;;;;;16.52;9.82;;;;;;;5.92;100.00;100669.97;5003998;28;20514;-71
2022/12/20 01:09:55;;;;;;;;;;;;;;;5.95;100.00;100668.91;5003035;28;20033;-71
2022/12/20 01:12:20;;;;;;;17.60;10.48;;;;;;;5.95;100.00;100669.75;5024236;28;19917;-71
2022/12/20 01:14:46;;;;;;;21.40;10.63;;;;;;;5.91;100.00;100663.84;5016253;28;20026;-71
2022/12/20 01:17:11;;;;;;;20.60;12.17;;;;;;;5.99;100.00;100675.63;5027949;28;20041;-71
2022/12/20 01:19:36;;;;;;;18.13;11.20;;;;;;;5.93;100.00;100675.16;5006180;28;20107;-71
2022/12/20 01:22:02;;;;;;;21.60;11.23;;;;;;;6.06;100.00;100668.81;5021267;28;20134;-71
2022/12/20 01:24:27;;;;;;;18.97;9.73;;;;;;;6.01;100.00;100676.31;5028533;28;20037;-71
2022/12/20 01:26:52;;;;;;;21.40;9.83;;;;;;;5.95;100.00;100669.75;5019891;28;20033;-71
2022/12/20 01:29:18;;;;;;;17.40;9.70;;;;;;;6.02;100.00;100685.97;5024284;28;20121;-71
2022/12/20 01:31:43;;;;;;;22.02;11.65;;;;;;;5.97;100.00;100672.25;4998078;28;20053;-71
2022/12/20 01:34:10;;;;;;;16.25;10.18;;;;;;;6.03;100.00;100679.69;5010357;28;20045;-71
2022/12/20 01:36:37;;;;;;;17.75;9.57;;;;;;;6.05;100.00;100680.38;5019574;28;20286;-70
2022/12/20 01:39:09;;;;;;;16.67;10.25;;;;;;;6.02;100.00;100680.66;5003178;28;20040;-71
2022/12/20 01:41:36;;;;;;;15.68;9.57;;;;;;;6.07;100.00;100679.28;5019454;28;20048;-71
2022/12/20 01:44:05;;;;;;;19.67;9.48;;;;;;;6.00;100.00;100678.16;5012463;28;20056;-71
2022/12/20 01:46:38;;;;;;;22.00;10.13;;;;;;;6.04;100.00;100682.22;5020276;28;20072;-71
2022/12/20 01:49:41;;;;;;;14.40;9.05;;;;;;;6.12;100.00;100681.53;5005098;28;20402;-71
2022/12/20 01:52:25;;;;;;;15.80;9.75;;;;;;;6.16;100.00;100682.94;4999707;28;20057;-71
2022/12/20 01:55:04;;;;;;;17.48;9.95;;;;;;;6.15;100.00;100675.94;5009145;28;20041;-71
2022/12/20 01:57:48;;;;;;;16.90;9.85;;;;;;;6.16;100.00;100680.28;5022878;28;20072;-71
2022/12/20 02:00:15;;;;;;;23.17;11.85;;;;;;;6.23;100.00;100686.72;5020521;28;20121;-71
2022/12/20 02:02:42;;;;;;;16.77;9.95;;;;;;;6.19;100.00;100681.81;5014480;28;20032;-71
2022/12/20 02:05:09;;;;;;;16.88;9.18;;;;;;;6.30;100.00;100682.56;5007594;28;20501;-71
2022/12/20 02:07:37;;;;;;;19.53;8.87;;;;;;;6.42;100.00;100682.44;4986006;28;20084;-71
2022/12/20 02:10:03;;;;;;;14.05;8.88;;;;;;;6.29;100.00;100680.84;5016563;28;20084;-71
2022/12/20 02:12:38;;;;;;;17.60;9.18;;;;;;;6.33;100.00;100679.63;5019965;28;20060;-71
2022/12/20 02:15:12;;;;;;;16.23;9.15;;;;;;;6.25;100.00;100673.31;5010930;28;20045;-71
2022/12/20 02:18:13;;;;;;;17.30;9.73;;;;;;;6.31;100.00;100681.56;5023679;28;20030;-71
2022/12/20 02:20:54;;;;;;;16.60;8.68;;;;;;;6.22;100.00;100677.06;5019711;28;20107;-71
2022/12/20 02:23:38;;;;;;;17.17;9.95;;;;;;;6.29;100.00;100683.50;5009404;28;20041;-71
2022/12/20 02:26:09;;;;;;;16.63;9.55;;;;;;;6.36;100.00;100685.63;5006499;28;20064;-71
2022/12/20 02:29:02;;;;;;;17.08;9.73;;;;;;;6.41;100.00;100696.66;4996860;28;20078;-70
2022/12/20 02:31:42;;;;;;;18.90;8.75;;;;;;;6.46;100.00;100678.50;4993308;28;20545;-71
2022/12/20 02:34:10;;;;;;;16.20;9.43;;;;;;;6.42;100.00;100685.94;5006269;28;20073;-71
2022/12/20 02:36:36;;;;;;;15.85;8.82;;;;;;;6.56;100.00;100697.97;5016426;28;20037;-71
2022/12/20 02:39:01;;;;;;;20.60;9.87;;;;;;;6.47;100.00;100696.13;5006539;28;20045;-71
2022/12/20 02:41:38;;;;;;;13.18;7.68;;;;;;;6.43;100.00;100694.72;4993261;28;20038;-71
2022/12/20 02:46:56;;;;;;;14.45;9.00;;;;;;;6.50;100.00;100712.59;5001117;28;20038;-70
2022/12/20 02:49:26;;;;;;;15.45;9.43;;;;;;;6.49;100.00;100700.31;5004529;28;20103;-71
2022/12/20 02:51:55;;;;;;;16.70;10.38;;;;;;;6.43;100.00;100700.00;4994271;28;20037;-71
2022/12/20 02:54:21;;;;;;;16.20;9.55;;;;;;;6.42;100.00;100685.94;5008589;28;20756;-70
2022/12/20 02:57:21;;;;;;;16.40;9.77;;;;;;;6.36;100.00;100694.41;5006405;28;20064;-70
2022/12/20 03:00:00;;;;;;;15.82;8.80;;;;;;;6.28;100.00;100686.31;5005443;28;20101;-70
2022/12/20 03:02:28;;;;;;;15.95;9.88;;;;;;;6.33;100.00;100697.34;5012923;28;20038;-71
2022/12/20 03:04:54;;;;;;;17.70;10.15;;;;;;;6.30;100.00;100694.97;5005217;28;20097;-71
2022/12/20 03:07:21;;;;;;;13.90;9.63;;;;;;;6.35;100.00;100690.09;5008456;28;20025;-71
2022/12/20 03:09:46;;;;;;;17.10;9.55;;;;;;;6.29;100.00;100696.75;4984188;28;20030;-71
2022/12/20 03:12:14;;;;;;;17.90;9.77;;;;;;;6.34;100.00;100706.97;5024899;28;20755;-71
2022/12/20 03:14:40;;;;;;;17.20;9.90;;;;;;;6.37;100.00;100713.81;5023554;28;20427;-71
2022/12/20 03:17:08;;;;;;;18.63;9.90;;;;;;;6.31;100.00;100712.56;5011808;28;20377;-71
2022/12/20 03:19:34;;;;;;;20.80;10.25;;;;;;;6.30;100.00;100717.03;5022331;28;20038;-71
2022/12/20 03:21:59;;;;;;;21.45;11.13;;;;;;;6.23;100.00;100728.31;5004600;28;20488;-70
2022/12/20 03:24:25;;;;;;;20.47;11.40;;;;;;;6.20;100.00;100736.50;5007199;28;20554;-71
2022/12/20 03:26:51;;;;;;;23.55;13.10;;;;;;;6.16;100.00;100748.34;5000529;28;20033;-71
2022/12/20 03:29:19;;;;;;;20.63;11.43;;;;;;;6.12;100.00;100761.88;5011669;28;20037;-71
2022/12/20 03:31:45;;;;;;;20.60;12.98;;;;;;;6.10;100.00;100768.28;5015253;28;20057;-71
2022/12/20 03:34:10;;;;;;;21.87;12.93;;;;;;;6.05;100.00;100775.81;5008383;28;20211;-71
2022/12/20 03:36:36;;;;;;;22.92;12.88;;;;;;;6.00;100.00;100784.16;5011482;28;20033;-71
2022/12/20 03:39:03;;;;;;;32.78;14.48;;;;;;;5.98;100.00;100779.97;5025766;28;20037;-71
2022/12/20 03:41:32;;;;;;;30.08;15.55;;;;;;;5.97;100.00;100783.56;4996307;28;20033;-71
2022/12/20 03:43:58;;;;;;;24.73;14.50;;;;;;;5.92;100.00;100782.13;5008203;28;20034;-70
2022/12/20 03:46:24;;;;;;;28.98;16.65;;;;;;;5.88;100.00;100793.97;5011577;28;20169;-71
2022/12/20 03:48:50;;;;;;;28.08;16.23;;;;;;;5.88;100.00;100804.56;5005416;28;20056;-70
2022/12/20 03:51:15;;;;;;;29.20;15.93;;;;;;;5.87;100.00;100799.38;5007027;28;20494;-71
2022/12/20 03:53:41;;;;;;;33.20;16.80;;;;;;;5.82;100.00;100791.81;5017583;28;20025;-71
2022/12/20 03:56:07;;;;;;;29.85;16.70;;;;;;;5.86;100.00;100806.50;5008123;28;20033;-71
2022/12/20 03:58:33;;;;;;;31.90;16.95;;;;;;;5.79;100.00;100794.75;5016315;28;20033;-70
2022/12/20 04:00:58;;;;;;;29.17;16.63;;;;;;;5.84;100.00;100795.19;5007795;28;20557;-70
2022/12/20 04:03:41;;;;;;;31.02;16.77;;;;;;;5.79;100.00;100796.56;5007758;28;20045;-71
2022/12/20 04:06:06;;;;;;;29.38;16.42;;;;;;;5.83;100.00;100803.25;5021448;28;20030;-71
2022/12/20 04:08:32;;;;;;;30.07;16.40;;;;;;;5.81;100.00;100795.47;5004850;23;20205;-76
2022/12/20 04:11:16;;;;;;;29.08;16.23;;;;;;;5.93;100.00;100804.16;5007640;28;20029;-76
2022/12/20 04:13:55;;;;;;;24.65;14.30;;;;;;;5.90;100.00;100793.84;5021108;28;20092;-76
2022/12/20 04:16:23;;;;;;;28.37;14.47;;;;;;;5.96;100.00;100781.91;5011685;28;20045;-76
2022/12/20 04:18:48;;;;;;;27.67;13.70;;;;;;;5.96;100.00;100787.19;5008128;28;20745;-76
2022/12/20 04:21:14;;;;;;;25.67;12.68;;;;;;;6.07;100.00;100793.25;5008065;28;20092;-76
2022/12/20 04:23:43;;;;;;;24.17;13.05;;;;;;;6.15;100.00;100760.78;5022905;28;20060;-76
2022/12/20 04:26:09;;;;;;;27.43;12.33;;;;;;;6.23;100.00;100760.13;5017885;28;20485;-76
2022/12/20 04:28:35;;;;;;;20.13;10.75;;;;;;;6.19;100.00;100745.47;5007566;28;20092;-76
2022/12/20 04:31:01;;;;;;;19.27;11.13;;;;;;;6.32;100.00;100741.59;5004694;28;20041;-76
2022/12/20 04:33:28;;;;;;;22.48;10.48;;;;;;;6.37;100.00;100727.06;5004088;28;20498;-76
2022/12/20 04:35:54;;;;;;;17.67;9.50;;;;;;;6.54;100.00;100739.69;4996903;28;20061;-76
2022/12/20 04:38:22;;;;;;;18.00;9.90;;;;;;;6.59;100.00;100726.84;5008453;28;20072;-76
2022/12/20 04:40:49;;;;;;;16.35;8.75;;;;;;;6.68;100.00;100714.59;4992629;28;20477;-76
2022/12/20 04:43:15;;;;;;;13.95;9.10;;;;;;;6.75;100.00;100705.91;5018672;28;20503;-76
2022/12/20 04:45:41;;;;;;;17.65;8.80;;;;;;;6.71;100.00;100682.47;5001965;28;20039;-76
2022/12/20 04:48:07;;;;;;;15.15;9.27;;;;;;;6.81;100.00;100682.47;5005062;28;20042;-76
2022/12/20 04:50:36;;;;;;;14.00;7.30;;;;;;;6.82;100.00;100678.84;5018933;28;20576;-76
2022/12/20 04:55:47;;;;;;;;;;;;;;;6.91;100.00;100662.91;5001964;28;20061;-76
2022/12/20 04:58:14;;;;;;;17.83;8.10;;;;;;;7.02;100.00;100669.88;4984587;28;19909;-76
2022/12/20 05:00:40;;;;;;;15.00;8.15;;;;;;;7.03;100.00;100645.03;5007721;28;20096;-76
2022/12/20 05:03:20;;;;;;;12.35;7.70;;;;;;;7.11;100.00;100653.09;4988622;28;20522;-76
2022/12/20 05:05:46;;;;;;;13.52;8.13;;;;;;;7.14;100.00;100636.91;5005062;28;20049;-75
2022/12/20 05:08:11;;;;;;;14.27;7.93;;;;;;;7.19;100.00;100624.03;5009372;28;20049;-76
2022/12/20 05:10:37;;;;;;;15.02;9.10;;;;;;;7.25;100.00;100625.25;5002686;28;20026;-77
2022/12/20 05:13:03;;;;;;;13.10;8.27;;;;;;;7.30;100.00;100619.50;4992164;28;20055;-77
2022/12/20 05:15:34;;;;;;;14.48;8.15;;;;;;;7.29;100.00;100620.50;5008436;28;20029;-77
2022/12/20 05:17:59;;;;;;;12.27;7.72;;;;;;;7.25;100.00;100627.91;4983255;28;20398;-78
2022/12/20 05:20:31;;;;;;;15.57;8.50;;;;;;;7.26;100.00;100634.06;5006475;28;20403;-79
2022/12/20 05:28:32;;;;;;;13.55;7.85;;;;;;;7.42;100.00;100652.06;4998411;28;20063;-78
2022/12/20 05:30:59;;;;;;;18.85;8.88;;;;;;;7.42;100.00;100650.22;4991170;28;20108;-78
2022/12/20 05:33:25;;;;;;;;;;;;;;;7.39;100.00;100650.53;4994074;28;20045;-78
2022/12/20 05:35:50;;;;;;;15.73;8.27;;;;;;;7.34;100.00;100636.84;4998196;28;20200;-78
2022/12/20 05:38:15;;;;;;;11.87;7.50;;;;;;;7.28;100.00;100643.56;5002092;28;20042;-78
2022/12/20 05:40:41;;;;;;;13.43;8.05;;;;;;;7.19;100.00;100644.44;5019068;28;20033;-77
2022/12/20 05:43:07;;;;;;;;;;;;;;;7.21;100.00;100653.09;5000675;28;20038;-76
2022/12/20 05:45:38;;;;;;;12.52;7.50;;;;;;;7.19;100.00;100655.88;5017978;28;19913;-77
2022/12/20 05:48:11;;;;;;;16.10;9.02;;;;;;;7.23;100.00;100672.34;5012808;28;20041;-76
2022/12/20 05:50:38;;;;;;;18.45;10.10;;;;;;;7.17;100.00;100673.78;4984621;28;20033;-75
2022/12/20 05:53:25;;;;;;;11.70;8.25;;;;;;;7.17;100.00;100681.75;4996963;28;20040;-76
2022/12/20 05:55:54;;;;;;;16.45;8.95;;;;;;;7.17;100.00;100689.72;5014479;28;20033;-75
2022/12/20 05:58:23;;;;;;;15.70;8.15;;;;;;;7.12;100.00;100686.66;4986630;28;20437;-76
2022/12/20 06:00:55;;;;;;;17.33;8.52;;;;;;;7.14;100.00;100699.75;5001993;28;20481;-76
2022/12/20 06:03:20;;;;;;;17.42;9.55;;;;;;;7.07;100.00;100699.50;5002436;28;20071;-76
2022/12/20 06:05:46;;;;;;;15.95;9.32;;;;;;;7.04;100.00;100721.00;5016561;28;20068;-76
2022/12/20 06:08:16;;;;;;;14.75;8.95;;;;;;;7.15;100.00;100712.06;5008782;28;20045;-76
2022/12/20 06:10:42;;;;;;;15.73;9.60;;;;;;;7.14;100.00;100710.38;5016678;28;20041;-76
2022/12/20 06:13:08;;;;;;;19.08;9.48;;;;;;;7.27;100.00;100718.06;4987970;28;20285;-77
2022/12/20 06:15:36;;;;;;;15.55;9.88;;;;;;;7.18;100.00;100719.75;4993037;28;20033;-76
2022/12/20 06:18:02;;;;;;;14.85;9.18;;;;;;;7.18;100.00;100736.50;4995585;28;20529;-76
2022/12/20 06:20:28;;;;;;;17.92;10.70;;;;;;;7.09;100.00;100717.94;4993179;28;20117;-76
2022/12/20 06:22:54;;;;;;;14.73;9.30;;;;;;;7.18;100.00;100725.88;4999241;28;20030;-75
2022/12/20 06:25:20;;;;;;;17.57;9.73;;;;;;;7.12;100.00;100713.19;5001760;28;20114;-75
2022/12/20 06:27:45;;;;;;;13.70;8.55;;;;;;;7.15;100.00;100707.59;5015719;28;20292;-76
2022/12/20 06:30:14;;;;;;;14.93;9.30;;;;;;;7.15;100.00;100710.25;5003086;28;20068;-76
2022/12/20 06:33:00;;;;;;;17.50;10.27;;;;;;;7.12;100.00;100709.72;4994880;28;20037;-76
2022/12/20 06:35:26;;;;;;;18.25;10.50;;;;;;;7.15;100.00;100706.75;5014301;28;20068;-76
2022/12/20 06:37:54;;;;;;;17.60;10.10;;;;;;;7.12;100.00;100705.22;5005369;28;20087;-76
2022/12/20 06:40:20;;;;;;;13.63;8.88;;;;;;;7.16;100.00;100706.63;4988617;28;20121;-76
2022/12/20 06:42:45;;;;;;;20.70;8.98;;;;;;;7.18;100.00;100712.59;4998821;28;20037;-76
2022/12/20 06:45:11;;;;;;;18.15;9.82;;;;;;;7.16;100.00;100717.25;5009592;28;20038;-75
2022/12/20 06:47:38;;;;;;;19.08;8.57;;;;;;;7.13;100.00;100714.84;4989293;28;20040;-76
2022/12/20 06:50:04;;;;;;;17.80;9.55;;;;;;;7.17;100.00;100715.44;5001369;28;20137;-75
2022/12/20 06:52:30;;;;;;;15.88;9.35;;;;;;;7.15;100.00;100707.59;4996739;28;20087;-75
2022/12/20 06:54:55;;;;;;;17.38;9.80;;;;;;;7.23;100.00;100706.88;4996941;28;20041;-76
2022/12/20 06:57:21;;;;;;;18.80;8.88;;;;;;;7.25;100.00;100702.25;4991833;28;20102;-76
2022/12/20 06:59:47;;;;;;;14.48;8.15;;;;;;;7.28;100.00;100690.53;4982727;28;20049;-76
2022/12/20 07:02:13;;;;;;;18.07;7.93;;;;;;;7.31;100.00;100693.75;4994872;28;20041;-76
2022/12/20 07:04:38;;;;;;;14.55;8.38;;;;;;;7.32;100.00;100710.50;4983661;28;20045;-76
2022/12/20 07:07:05;;;;;;;14.23;8.67;;;;;;;7.17;100.00;100702.97;5010042;28;20055;-76
2022/12/20 07:09:30;;;;;;;15.02;9.57;;;;;;;7.23;100.00;100698.91;4992896;28;20038;-76
2022/12/20 07:11:56;;;;;;;12.70;8.00;;;;;;;7.31;100.00;100706.19;4972847;28;20495;-76
2022/12/20 07:14:21;;;;;;;17.75;8.60;;;;;;;7.31;100.00;100706.19;5000539;28;20284;-77
2022/12/20 07:16:47;;;;;;;16.23;8.10;;;;;;;7.28;100.00;100702.00;4998704;28;20133;-76
2022/12/20 07:19:14;;;;;;;20.70;9.43;;;;;;;7.29;100.00;100716.13;5016973;28;20085;-76
2022/12/20 07:21:39;;;;;;;21.17;9.98;;;;;;;7.25;100.00;100699.63;4999318;28;20298;-76
2022/12/20 07:24:05;;;;;;;18.63;9.48;;;;;;;7.00;100.00;100698.41;5016054;28;20056;-76
2022/12/20 07:26:31;;;;;;;21.77;11.63;;;;;;;6.88;100.00;100704.81;4996418;28;20064;-77
2022/12/20 07:28:56;;;;;;;26.25;11.35;;;;;;;6.76;100.00;100707.59;5004936;28;20045;-77
2022/12/20 07:31:22;;;;;;;18.33;11.43;;;;;;;6.73;100.00;100707.88;5004588;28;20029;-76
2022/12/20 07:33:47;;;;;;;27.83;12.33;;;;;;;6.63;100.00;100711.50;4998321;28;20041;-76
2022/12/20 07:36:14;;;;;;;25.77;12.23;;;;;;;6.60;100.00;100712.59;4992934;28;20040;-77
2022/12/20 07:38:40;;;;;;;28.17;14.48;;;;;;;6.58;100.00;100713.72;4999191;28;20032;-76
2022/12/20 07:41:07;;;;;;;25.40;14.82;;;;;;;6.58;100.00;100709.28;5015553;28;20045;-77
2022/12/20 07:43:33;;;;;;;23.85;13.65;;;;;;;6.59;100.00;100710.94;5004521;28;20117;-76
2022/12/20 07:45:58;;;;;;;21.45;14.00;;;;;;;6.57;100.00;100706.75;4998319;28;20070;-76
2022/12/20 07:48:24;;;;;;;25.15;13.13;;;;;;;6.61;100.00;100701.03;4992217;28;20145;-76
2022/12/20 07:50:57;;;;;;;30.40;14.13;;;;;;;6.52;100.00;100689.41;5021249;28;20602;-77
2022/12/20 07:53:23;;;;;;;25.95;12.98;;;;;;;6.59;100.00;100695.00;4995950;28;20112;-77
2022/12/20 07:55:49;;;;;;;26.63;14.82;;;;;;;6.50;100.00;100691.38;5007088;28;20556;-76
2022/12/20 07:58:16;;;;;;;27.40;14.30;;;;;;;6.61;100.00;100695.72;4999421;28;20034;-76
2022/12/20 08:00:42;;;;;;;27.30;14.65;;;;;;;6.62;100.00;100693.91;4979641;28;20833;-77
2022/12/20 08:03:14;;;;;;;24.20;13.80;;;;;;;6.66;100.00;100698.78;5016452;28;20037;-75
2022/12/20 08:05:44;;;;;;;22.42;13.40;;;;;;;6.66;100.00;100690.00;5019326;28;20112;-75
2022/12/20 08:08:10;;;;;;;23.27;14.10;;;;;;;6.65;100.00;100685.66;5014577;28;20053;-76
2022/12/20 08:10:37;;;;;;;24.65;13.80;;;;;;;6.66;100.00;100685.53;5002311;28;20049;-76
2022/12/20 08:13:04;;;;;;;26.65;15.05;;;;;;;6.60;100.00;100679.94;5018497;28;20026;-77
2022/12/20 08:15:30;;;;;;;29.90;15.02;;;;;;;6.67;100.00;100681.91;5007772;28;20390;-76
2022/12/20 08:17:55;;;;;;;25.48;13.75;;;;;;;6.66;100.00;100685.53;5000583;28;20042;-76
2022/12/20 08:20:21;;;;;;;27.33;14.97;;;;;;;6.71;100.00;100682.47;5016858;28;20120;-76
2022/12/20 08:22:46;;;;;;;26.90;15.40;;;;;;;6.59;100.00;100676.44;5014591;28;20045;-77
2022/12/20 08:25:11;;;;;;;25.50;14.77;;;;;;;6.57;100.00;100673.09;5009410;28;20542;-77
2022/12/20 08:27:37;;;;;;;30.98;15.88;;;;;;;6.51;100.00;100665.72;5019506;28;20033;-77
2022/12/20 08:30:03;;;;;;;27.30;14.83;;;;;;;6.53;100.00;100671.69;5018447;28;20041;-76
2022/12/20 08:32:29;;;;;;;30.83;16.10;;;;;;;6.62;100.00;100672.69;5012788;28;20073;-76
2022/12/20 08:34:54;;;;;;;27.63;15.73;;;;;;;6.62;100.00;100672.69;5007992;28;20025;-76
2022/12/20 08:37:19;;;;;;;30.20;16.93;;;;;;;6.65;100.00;100667.94;5009661;28;20987;-77
2022/12/20 08:39:45;;;;;;;35.20;15.90;;;;;;;6.81;100.00;100669.19;5017667;28;20048;-76
2022/12/20 08:42:11;;;;;;;28.63;15.10;;;;;;;6.85;100.00;100678.56;5017226;28;20088;-76
2022/12/20 08:44:37;;;;;;;28.70;14.68;;;;;;;6.75;100.00;100652.84;5008032;28;20041;-75
2022/12/20 08:47:02;;;;;;;31.60;16.20;;;;;;;6.78;100.00;100656.22;5017752;28;20117;-76
2022/12/20 08:49:28;;;;;;;24.77;15.13;;;;;;;6.79;100.00;100641.94;5003415;28;20280;-76
2022/12/20 08:51:53;;;;;;;32.00;17.63;;;;;;;6.81;100.00;100647.97;4983580;28;20356;-77
2022/12/20 08:54:18;;;;;;;26.73;15.63;;;;;;;6.85;100.00;100641.41;5020783;28;20037;-76
2022/12/20 08:56:44;;;;;;;32.67;14.30;;;;;;;6.89;100.00;100637.50;4994771;28;20613;-75
2022/12/20 08:59:09;;;;;;;24.70;14.37;;;;;;;6.96;100.00;100633.28;5009402;28;20574;-76
2022/12/20 09:01:34;;;;;;;29.20;15.03;;;;;;;6.98;100.00;100626.03;4991197;28;20030;-76
2022/12/20 09:04:00;;;;;;;26.47;15.73;;;;;;;6.96;100.00;100620.03;5017419;28;20042;-76
2022/12/20 09:06:26;;;;;;;28.52;14.65;;;;;;;6.89;100.00;100609.13;5011049;28;20092;-76
2022/12/20 09:08:51;;;;;;;30.05;15.75;;;;;;;6.80;100.00;100604.66;4996072;28;20049;-77
2022/12/20 09:11:24;;;;;;;26.80;13.98;;;;;;;6.85;100.00;100605.06;4991432;28;20025;-75
2022/12/20 09:13:52;;;;;;;30.67;15.52;;;;;;;6.88;100.00;100609.25;4991279;28;20057;-76
2022/12/20 09:16:20;;;;;;;25.50;14.68;;;;;;;6.94;100.00;100621.97;4991410;28;20017;-76
2022/12/20 09:18:55;;;;;;;27.75;14.63;;;;;;;6.92;100.00;100614.16;4995704;28;20057;-76
2022/12/20 09:21:20;;;;;;;26.75;14.48;;;;;;;6.96;100.00;100620.84;5005801;28;20138;-75
2022/12/20 09:23:49;;;;;;;25.70;15.32;;;;;;;7.01;100.00;100620.44;5027021;28;20433;-76
2022/12/20 09:26:16;;;;;;;26.38;14.30;;;;;;;7.04;100.00;100614.81;4995699;28;20041;-76
2022/12/20 09:28:43;;;;;;;21.98;12.52;;;;;;;7.18;100.00;100624.16;5007691;28;20060;-77
2022/12/20 09:31:11;;;;;;;26.65;15.57;;;;;;;7.07;100.00;100625.19;4926505;28;20029;-76
2022/12/20 09:33:37;;;;;;;29.13;14.23;;;;;;;7.11;100.00;100618.56;4994114;28;20037;-76
2022/12/20 09:36:03;;;;;;;24.23;13.27;;;;;;;7.19;100.00;100617.88;5012965;28;20041;-76
2022/12/20 09:38:30;;;;;;;23.05;13.48;;;;;;;7.19;100.00;100609.91;5020637;28;20041;-76
2022/12/20 09:41:03;;;;;;;23.20;13.52;;;;;;;7.16;100.00;100619.00;5006791;28;20057;-76
2022/12/20 09:43:29;;;;;;;23.95;14.18;;;;;;;7.11;100.00;100615.91;4994306;28;20037;-76
2022/12/20 09:45:58;;;;;;;22.83;13.90;;;;;;;7.15;100.00;100613.84;4990759;28;20030;-77
2022/12/20 09:48:36;;;;;;;24.63;13.63;;;;;;;7.22;100.00;100622.06;4990771;28;20061;-75
2022/12/20 09:51:34;;;;;;;23.48;13.57;;;;;;;7.31;100.00;100622.03;4990124;28;20064;-77
2022/12/20 09:54:06;;;;;;;25.42;13.77;;;;;;;7.33;100.00;100622.72;4978299;28;20535;-76
2022/12/20 09:56:36;;;;;;;25.08;13.48;;;;;;;7.37;100.00;100625.91;5010795;28;20129;-76
2022/12/20 09:59:05;;;;;;;24.30;13.18;;;;;;;7.37;100.00;100620.59;4994571;28;20042;-76
2022/12/20 10:01:34;;;;;;;23.15;13.43;;;;;;;7.45;100.00;100604.81;5027530;28;20955;-76
2022/12/20 10:04:10;;;;;;;19.30;11.85;;;;;;;7.46;100.00;100603.81;5027664;28;20069;-76
2022/12/20 10:06:45;;;;;;;17.35;10.52;;;;;;;7.55;100.00;100602.94;4988599;28;20106;-76
2022/12/20 10:09:30;;;;;;;20.57;11.17;;;;;;;7.52;100.00;100597.09;5022070;28;20029;-77
2022/12/20 10:12:13;;;;;;;19.23;11.33;;;;;;;7.54;100.00;100587.16;4993633;28;20029;-76
2022/12/20 10:14:47;;;;;;;21.33;12.77;;;;;;;7.59;100.00;100585.72;5009953;28;20029;-76
2022/12/20 10:17:36;;;;;;;20.73;11.40;;;;;;;7.61;100.00;100581.09;5008623;28;20030;-76
2022/12/20 10:20:07;;;;;;;23.08;11.90;;;;;;;7.69;100.00;100587.50;4997127;28;20125;-76
2022/12/20 10:23:01;;;;;;;19.63;11.23;;;;;;;7.65;100.00;100575.47;5002088;28;20029;-77
2022/12/20 10:25:31;;;;;;;20.77;11.40;;;;;;;7.70;100.00;100576.72;5016338;28;20037;-77
2022/12/20 10:28:01;;;;;;;23.38;12.48;;;;;;;7.64;100.00;100576.47;4997886;28;20045;-76
2022/12/20 10:30:28;;;;;;;24.63;13.10;;;;;;;7.60;100.00;100575.91;4993613;28;20033;-76
2022/12/20 10:32:56;;;;;;;21.63;11.63;;;;;;;7.69;100.00;100583.00;5000912;28;20081;-76
2022/12/20 10:35:45;;;;;;;21.23;12.43;;;;;;;7.63;100.00;100572.13;4997385;28;20025;-76
2022/12/20 10:38:12;;;;;;;19.02;11.60;;;;;;;7.61;100.00;100565.16;5007125;28;20072;-76
2022/12/20 10:40:57;;;;;;;23.63;13.60;;;;;;;7.66;100.00;100558.56;5005890;28;20022;-77
2022/12/20 10:43:24;;;;;;;21.92;12.45;;;;;;;7.61;100.00;100559.84;4984760;28;20391;-76
2022/12/20 10:45:59;;;;;;;24.83;12.40;;;;;;;7.61;100.00;100559.00;5007281;28;20045;-76
2022/12/20 10:48:35;;;;;;;21.88;12.35;;;;;;;7.60;100.00;100558.16;4989836;28;20439;-76
2022/12/20 10:51:24;;;;;;;28.52;14.75;;;;;;;7.61;100.00;100561.66;5020672;28;20045;-77
2022/12/20 10:53:56;;;;;;;26.63;13.80;;;;;;;7.50;100.00;100559.19;4989101;28;20049;-76
2022/12/20 10:56:28;;;;;;;34.80;16.17;;;;;;;7.47;100.00;100556.81;4989648;28;20041;-76
2022/12/20 10:59:00;;;;;;;28.13;14.63;;;;;;;7.50;100.00;100544.09;4989705;28;20033;-76
2022/12/20 11:01:32;;;;;;;25.65;14.57;;;;;;;7.46;100.00;100534.75;4988668;28;20038;-76
2022/12/20 11:04:02;;;;;;;32.83;16.35;;;;;;;7.43;100.00;100540.34;4989079;28;20523;-76
2022/12/20 11:06:48;;;;;;;32.75;16.15;;;;;;;7.31;100.00;100536.22;4996823;28;20034;-76
2022/12/20 11:09:36;;;;;;;33.13;16.08;;;;;;;7.31;100.00;100544.19;5025470;28;20057;-76
2022/12/20 11:12:14;;;;;;;28.52;16.02;;;;;;;7.31;100.00;100528.25;4996079;28;20037;-76
2022/12/20 11:14:42;;;;;;;38.25;17.25;;;;;;;7.33;100.00;100534.25;4988953;28;20037;-76
2022/12/20 11:17:10;;;;;;;33.83;17.48;;;;;;;7.31;100.00;100533.56;4988791;28;20434;-76
2022/12/20 11:19:54;;;;;;;30.65;17.20;;;;;;;7.33;100.00;100529.78;4988882;28;20061;-76
2022/12/20 11:22:50;;;;;;;31.60;16.30;;;;;;;7.31;100.00;100520.28;4982798;28;20025;-77
2022/12/20 11:25:30;;;;;;;30.90;16.92;;;;;;;7.30;100.00;100523.91;5016279;28;20049;-76
2022/12/20 11:28:08;;;;;;;35.20;18.60;;;;;;;7.35;100.00;100532.28;5010911;28;20033;-77
2022/12/20 11:30:58;;;;;;;29.10;17.33;;;;;;;7.40;100.00;100533.53;4992587;28;20029;-76
2022/12/20 11:33:26;;;;;;;28.70;16.85;;;;;;;7.54;100.00;100526.88;5013175;28;20033;-76
2022/12/20 11:36:00;;;;;;;27.20;17.00;;;;;;;7.64;100.00;100526.00;4997573;28;20033;-77